createdAt,value
2023-01-20T03:59:21.145Z,19.49
2023-01-20T04:00:20.543Z,19.47
2023-01-20T04:01:20.723Z,19.45
2023-01-20T04:02:20.615Z,19.52
2023-01-20T04:03:21.144Z,19.52
2023-01-20T04:04:19.511Z,19.56
2023-01-20T04:05:21.112Z,19.50
2023-01-20T04:06:21.137Z,19.53
2023-01-20T04:07:21.112Z,19.55
2023-01-20T04:08:21.123Z,19.57
2023-01-20T04:09:21.110Z,19.50
2023-01-20T04:10:21.110Z,19.65
2023-01-20T04:11:21.146Z,19.63
2023-01-20T04:12:20.452Z,19.67
2023-01-20T04:13:20.629Z,19.63
2023-01-20T04:14:19.442Z,19.67
2023-01-20T04:15:19.461Z,19.72
2023-01-20T04:16:19.428Z,19.70
2023-01-20T04:17:19.431Z,19.67
2023-01-20T04:18:21.133Z,19.63
2023-01-20T04:19:19.426Z,19.74
2023-01-20T04:20:19.427Z,19.78
2023-01-20T04:21:19.402Z,19.72
2023-01-20T04:22:21.119Z,19.70
2023-01-20T04:23:20.633Z,19.85
2023-01-20T04:24:21.164Z,19.78
2023-01-20T04:25:21.133Z,19.78
2023-01-20T04:26:21.127Z,19.83
2023-01-20T04:27:20.372Z,19.75
2023-01-20T04:28:21.140Z,19.79
2023-01-20T04:29:20.355Z,19.79
2023-01-20T04:30:21.169Z,19.89
2023-01-20T04:31:30.023Z,19.89
2023-01-20T04:32:20.648Z,19.86
2023-01-20T04:33:21.129Z,19.90
2023-01-20T04:34:21.140Z,19.83
2023-01-20T04:35:20.325Z,19.82
2023-01-20T04:36:21.129Z,19.87
2023-01-20T04:37:20.650Z,19.95
2023-01-20T04:38:21.132Z,19.86
2023-01-20T04:39:21.138Z,19.93
2023-01-20T04:40:21.152Z,20.07
2023-01-20T04:41:20.303Z,20.00
2023-01-20T04:42:19.294Z,20.00
2023-01-20T04:43:20.293Z,19.95
2023-01-20T04:44:21.165Z,20.10
2023-01-20T04:45:20.649Z,20.04
2023-01-20T04:46:20.706Z,20.05
2023-01-20T04:47:20.267Z,20.08
2023-01-20T04:48:20.272Z,20.02
2023-01-20T04:49:19.259Z,20.07
2023-01-20T04:50:21.174Z,20.10
2023-01-20T04:51:20.249Z,20.11
2023-01-20T04:52:20.659Z,20.08
2023-01-20T04:53:20.243Z,20.08
2023-01-20T04:54:20.234Z,20.08
2023-01-20T04:55:21.162Z,20.18
2023-01-20T04:56:21.178Z,20.16
2023-01-20T04:57:21.151Z,20.15
2023-01-20T04:58:21.147Z,20.12
2023-01-20T04:59:21.204Z,20.20
2023-01-20T05:00:21.177Z,20.23
2023-01-20T05:01:21.254Z,20.19
2023-01-20T05:02:21.388Z,20.16
2023-01-20T05:03:21.158Z,20.18
2023-01-20T05:04:21.163Z,20.19
2023-01-20T05:05:21.179Z,20.18
2023-01-20T05:06:21.177Z,20.20
2023-01-20T05:07:21.158Z,20.12
2023-01-20T05:08:21.156Z,20.20
2023-01-20T05:09:20.173Z,20.19
2023-01-20T05:10:20.672Z,20.19
2023-01-20T05:11:20.681Z,20.20
2023-01-20T05:12:20.660Z,20.18
2023-01-20T05:13:20.657Z,20.20
2023-01-20T05:14:20.664Z,20.15
2023-01-20T05:15:20.686Z,20.22
2023-01-20T05:16:20.677Z,20.16
2023-01-20T05:17:20.661Z,20.29
2023-01-20T05:18:20.697Z,20.27
2023-01-20T05:19:20.665Z,20.32
2023-01-20T05:20:20.692Z,20.32
2023-01-20T05:21:20.699Z,20.34
2023-01-20T05:22:20.681Z,20.29
2023-01-20T05:23:21.191Z,20.27
2023-01-20T05:24:20.101Z,20.32
2023-01-20T05:25:20.189Z,20.25
2023-01-20T05:26:19.095Z,20.26
2023-01-20T05:27:20.673Z,20.26
2023-01-20T05:28:20.081Z,20.35
2023-01-20T05:29:20.198Z,20.30
2023-01-20T05:30:20.090Z,20.26
2023-01-20T05:31:20.239Z,20.37
2023-01-20T05:32:20.065Z,20.26
2023-01-20T05:33:20.695Z,20.35
2023-01-20T05:34:20.066Z,20.35
2023-01-20T05:35:20.686Z,20.32
2023-01-20T05:36:20.039Z,20.38
2023-01-20T05:37:20.700Z,20.32
2023-01-20T05:38:20.678Z,20.41
2023-01-20T05:39:20.699Z,20.42
2023-01-20T05:40:20.681Z,20.35
2023-01-20T05:41:20.683Z,20.37
2023-01-20T05:42:20.681Z,20.42
2023-01-20T05:43:20.695Z,20.42
2023-01-20T05:44:20.704Z,20.41
2023-01-20T05:45:19.044Z,20.42
2023-01-20T05:46:19.050Z,20.37
2023-01-20T05:47:20.204Z,20.41
2023-01-20T05:48:18.987Z,20.42
2023-01-20T05:49:20.701Z,20.41
2023-01-20T05:50:18.987Z,20.38
2023-01-20T05:51:18.979Z,20.48
2023-01-20T05:52:18.976Z,20.37
2023-01-20T05:53:18.973Z,20.37
2023-01-20T05:54:20.209Z,20.42
2023-01-20T05:55:18.953Z,20.41
2023-01-20T05:56:18.958Z,20.42
2023-01-20T05:57:18.948Z,20.42
2023-01-20T05:58:20.724Z,20.34
2023-01-20T05:59:18.930Z,20.37
2023-01-20T06:00:20.735Z,20.44
2023-01-20T06:01:20.724Z,20.38
2023-01-20T06:02:19.989Z,20.44
2023-01-20T06:03:20.720Z,20.41
2023-01-20T06:04:20.216Z,20.46
2023-01-20T06:05:20.709Z,20.41
2023-01-20T06:06:20.713Z,20.44
2023-01-20T06:07:19.903Z,20.37
2023-01-20T06:08:20.706Z,20.35
2023-01-20T06:09:20.725Z,20.48
2023-01-20T06:10:20.725Z,20.41
2023-01-20T06:11:20.715Z,20.34
2023-01-20T06:12:20.708Z,20.38
2023-01-20T06:13:20.720Z,20.35
2023-01-20T06:14:20.718Z,20.41
2023-01-20T06:15:20.707Z,20.38
2023-01-20T06:16:20.759Z,20.46
2023-01-20T06:17:20.739Z,20.42
2023-01-20T06:18:19.843Z,20.32
2023-01-20T06:19:20.725Z,20.38
2023-01-20T06:20:18.835Z,20.37
2023-01-20T06:21:19.837Z,20.46
2023-01-20T06:22:19.843Z,20.40
2023-01-20T06:23:19.823Z,20.38
2023-01-20T06:24:20.243Z,20.37
2023-01-20T06:25:19.816Z,20.49
2023-01-20T06:26:19.809Z,20.41
2023-01-20T06:27:19.810Z,20.41
2023-01-20T06:28:19.797Z,20.41
2023-01-20T06:29:20.736Z,20.40
2023-01-20T06:30:20.731Z,20.38
2023-01-20T06:31:20.802Z,20.40
2023-01-20T06:32:20.737Z,20.42
2023-01-20T06:33:20.745Z,20.44
2023-01-20T06:34:20.722Z,20.40
2023-01-20T06:35:20.726Z,20.37
2023-01-20T06:36:20.738Z,20.40
2023-01-20T06:37:20.726Z,20.42
2023-01-20T06:38:20.764Z,20.44
2023-01-20T06:39:18.760Z,20.40
2023-01-20T06:40:18.759Z,20.37
2023-01-20T06:41:20.283Z,20.37
2023-01-20T06:42:19.748Z,20.40
2023-01-20T06:43:18.728Z,20.42
2023-01-20T06:44:20.245Z,20.40
2023-01-20T06:45:18.744Z,20.54
2023-01-20T06:46:19.903Z,20.42
2023-01-20T06:47:20.247Z,20.48
2023-01-20T06:48:20.248Z,20.42
2023-01-20T06:49:18.717Z,20.48
2023-01-20T06:50:20.265Z,20.40
2023-01-20T06:51:18.945Z,20.37
2023-01-20T06:52:19.132Z,20.40
2023-01-20T06:53:20.318Z,20.42
2023-01-20T06:54:19.797Z,20.40
2023-01-20T06:55:18.690Z,20.42
2023-01-20T06:56:18.894Z,20.42
2023-01-20T06:57:18.772Z,20.44
2023-01-20T06:58:19.829Z,20.40
2023-01-20T06:59:18.664Z,20.41
2023-01-20T07:00:20.246Z,20.38
2023-01-20T07:01:18.765Z,20.38
2023-01-20T07:02:20.283Z,20.44
2023-01-20T07:03:18.640Z,20.41
2023-01-20T07:04:20.297Z,20.44
2023-01-20T07:05:18.646Z,20.51
2023-01-20T07:06:20.249Z,20.44
2023-01-20T07:07:18.624Z,20.40
2023-01-20T07:08:20.284Z,20.38
2023-01-20T07:09:20.268Z,20.37
2023-01-20T07:10:18.625Z,20.46
2023-01-20T07:11:20.265Z,20.41
2023-01-20T07:12:20.254Z,20.42
2023-01-20T07:13:20.259Z,20.46
2023-01-20T07:14:20.254Z,20.40
2023-01-20T07:15:20.259Z,20.46
2023-01-20T07:16:20.339Z,20.41
2023-01-20T07:17:20.271Z,20.40
2023-01-20T07:18:20.285Z,20.46
2023-01-20T07:19:20.271Z,20.42
2023-01-20T07:20:18.595Z,20.41
2023-01-20T07:21:18.553Z,20.51
2023-01-20T07:22:18.554Z,20.46
2023-01-20T07:23:20.283Z,20.41
2023-01-20T07:24:18.552Z,20.51
2023-01-20T07:25:18.543Z,20.38
2023-01-20T07:26:18.579Z,20.41
2023-01-20T07:27:18.533Z,20.38
2023-01-20T07:28:20.283Z,20.49
2023-01-20T07:29:18.529Z,20.46
2023-01-20T07:30:20.307Z,20.46
2023-01-20T07:31:18.766Z,20.46
2023-01-20T07:32:20.290Z,20.42
2023-01-20T07:33:20.273Z,20.42
2023-01-20T07:34:20.280Z,20.48
2023-01-20T07:35:18.500Z,20.37
2023-01-20T07:37:20.269Z,20.41
2023-01-20T07:38:20.295Z,20.48
2023-01-20T07:39:20.455Z,20.48
2023-01-20T07:40:20.283Z,20.48
2023-01-20T07:42:20.331Z,20.48
2023-01-20T07:43:20.289Z,20.38
2023-01-20T07:44:20.316Z,20.41
2023-01-20T07:45:20.279Z,20.42
2023-01-20T07:46:20.329Z,20.48
2023-01-20T07:47:20.301Z,20.44
2023-01-20T07:48:20.281Z,20.46
2023-01-20T07:49:18.428Z,20.44
2023-01-20T07:51:20.311Z,20.56
2023-01-20T07:52:18.415Z,20.46
2023-01-20T07:53:18.428Z,20.48
2023-01-20T07:54:18.410Z,20.48
2023-01-20T07:55:18.399Z,20.51
2023-01-20T07:56:18.394Z,20.38
2023-01-20T07:58:18.408Z,20.42
2023-01-20T07:59:18.384Z,20.46
2023-01-20T08:00:18.470Z,20.51
2023-01-20T08:02:20.352Z,20.44
2023-01-20T08:03:18.367Z,20.54
2023-01-20T08:04:20.307Z,20.51
2023-01-20T08:05:20.296Z,20.56
2023-01-20T08:06:20.296Z,20.46
2023-01-20T08:08:20.301Z,20.61
2023-01-20T08:10:20.307Z,20.60
2023-01-20T08:11:20.316Z,20.53
2023-01-20T08:12:20.341Z,20.60
2023-01-20T08:13:19.315Z,20.49
2023-01-20T08:14:19.878Z,20.53
2023-01-20T08:15:19.801Z,20.57
2023-01-20T08:16:19.859Z,20.57
2023-01-20T08:17:19.806Z,20.49
2023-01-20T08:18:19.820Z,20.60
2023-01-20T08:19:19.832Z,20.56
2023-01-20T08:20:19.831Z,20.57
2023-01-20T08:21:19.808Z,20.57
2023-01-20T08:22:19.809Z,20.64
2023-01-20T08:23:19.823Z,20.56
2023-01-20T08:24:19.825Z,20.58
2023-01-20T08:25:18.259Z,20.57
2023-01-20T08:26:19.808Z,20.60
2023-01-20T08:27:18.844Z,20.60
2023-01-20T08:28:18.248Z,20.60
2023-01-20T08:29:19.851Z,20.57
2023-01-20T08:30:18.353Z,20.53
2023-01-20T08:31:18.352Z,20.57
2023-01-20T08:32:19.248Z,20.57
2023-01-20T08:33:20.571Z,20.60
2023-01-20T08:34:21.029Z,20.58
2023-01-20T08:35:19.933Z,20.57
2023-01-20T08:36:18.381Z,20.61
2023-01-20T08:37:18.209Z,20.60
2023-01-20T08:38:18.202Z,20.57
2023-01-20T08:39:19.865Z,20.61
2023-01-20T08:40:18.278Z,20.64
2023-01-20T08:41:18.195Z,20.58
2023-01-20T08:42:19.862Z,20.64
2023-01-20T08:43:18.228Z,20.61
2023-01-20T08:44:19.856Z,20.67
2023-01-20T08:45:18.170Z,20.61
2023-01-20T08:46:18.299Z,20.66
2023-01-20T08:47:18.268Z,20.68
2023-01-20T08:48:19.969Z,20.61
2023-01-20T08:49:18.154Z,20.64
2023-01-20T08:50:18.155Z,20.61
2023-01-20T08:51:18.156Z,20.63
2023-01-20T08:52:18.137Z,20.71
2023-01-20T08:53:19.349Z,20.66
2023-01-20T08:54:19.125Z,20.61
2023-01-20T08:55:18.133Z,20.68
2023-01-20T08:56:18.127Z,20.71
2023-01-20T08:57:18.160Z,20.75
2023-01-20T08:58:18.118Z,20.75
2023-01-20T08:59:20.833Z,20.72
2023-01-20T09:00:18.102Z,20.71
2023-01-20T09:01:18.177Z,20.75
2023-01-20T09:02:18.171Z,20.71
2023-01-20T09:03:18.125Z,20.72
2023-01-20T09:04:19.866Z,20.67
2023-01-20T09:07:20.097Z,20.71
2023-01-20T09:08:19.869Z,20.78
2023-01-20T09:09:19.864Z,20.72
2023-01-20T09:10:20.059Z,20.76
2023-01-20T09:11:20.921Z,20.76
2023-01-20T09:12:18.047Z,20.81
2023-01-20T09:13:19.850Z,20.71
2023-01-20T09:15:19.856Z,20.81
2023-01-20T09:16:19.952Z,20.86
2023-01-20T09:17:19.899Z,20.76
2023-01-20T09:18:19.889Z,20.88
2023-01-20T09:19:19.876Z,20.86
2023-01-20T09:20:19.859Z,20.96
2023-01-20T09:21:19.858Z,20.86
2023-01-20T09:22:19.861Z,20.96
2023-01-20T09:23:19.860Z,20.86
2023-01-20T09:24:19.877Z,20.91
2023-01-20T09:25:19.875Z,20.93
2023-01-20T09:26:35.012Z,20.98
2023-01-20T09:27:19.871Z,20.97
2023-01-20T09:28:17.990Z,20.93
2023-01-20T09:29:17.993Z,20.98
2023-01-20T09:31:20.058Z,21.08
2023-01-20T09:33:19.874Z,21.08
2023-01-20T09:34:20.024Z,21.01
2023-01-20T09:35:19.891Z,21.01
2023-01-20T09:36:18.110Z,20.98
2023-01-20T09:37:17.949Z,21.13
2023-01-20T09:38:19.880Z,21.01
2023-01-20T09:39:19.888Z,21.06
2023-01-20T09:41:17.925Z,21.03
2023-01-20T09:44:19.889Z,21.04
2023-01-20T09:45:19.913Z,21.06
2023-01-20T09:46:19.982Z,21.09
2023-01-20T09:48:19.887Z,21.08
2023-01-20T09:49:18.905Z,21.06
2023-01-20T09:50:19.462Z,21.03
2023-01-20T09:51:19.402Z,21.06
2023-01-20T09:52:19.383Z,21.09
2023-01-20T09:53:19.880Z,21.06
2023-01-20T09:54:19.388Z,21.13
2023-01-20T09:55:19.388Z,21.13
2023-01-20T09:57:19.404Z,21.06
2023-01-20T09:58:17.853Z,21.09
2023-01-20T09:59:17.849Z,21.19
2023-01-20T10:00:19.413Z,21.21
2023-01-20T10:01:17.865Z,21.18
2023-01-20T10:14:36.087Z,21.19
2023-01-20T10:15:35.240Z,21.21
2023-01-20T10:16:36.945Z,21.22
2023-01-20T10:17:35.055Z,21.19
2023-01-20T10:18:36.955Z,21.21
2023-01-20T10:19:36.043Z,21.22
2023-01-20T10:20:36.931Z,21.18
2023-01-20T10:21:35.039Z,21.21
2023-01-20T10:23:35.034Z,21.21
2023-01-20T10:24:36.940Z,21.19
2023-01-20T10:25:37.987Z,21.19
2023-01-20T10:26:35.036Z,21.18
2023-01-20T10:27:35.952Z,21.18
2023-01-20T10:28:36.616Z,21.30
2023-01-20T10:29:36.981Z,21.25
2023-01-20T10:30:35.447Z,21.25
2023-01-20T10:31:37.063Z,21.21
2023-01-20T10:32:35.010Z,21.31
2023-01-20T10:33:35.163Z,21.28
2023-01-20T10:34:35.184Z,21.27
2023-01-20T10:35:37.304Z,21.23
2023-01-20T10:36:37.166Z,21.30
2023-01-20T10:37:34.987Z,21.33
2023-01-20T10:38:35.107Z,21.34
2023-01-20T10:39:36.424Z,21.27
2023-01-20T10:40:35.456Z,21.31
2023-01-20T10:41:34.955Z,21.34
2023-01-20T10:42:36.476Z,21.33
2023-01-20T10:43:35.050Z,21.37
2023-01-20T10:44:34.968Z,21.37
2023-01-20T10:45:36.443Z,21.34
2023-01-20T10:46:35.055Z,21.36
2023-01-20T10:47:36.482Z,21.37
2023-01-20T10:48:34.922Z,21.36
2023-01-20T10:49:34.951Z,21.43
2023-01-20T10:50:34.989Z,21.40
2023-01-20T10:51:36.466Z,21.41
2023-01-20T10:52:36.462Z,21.52
2023-01-20T10:53:36.449Z,21.51
2023-01-20T10:54:36.466Z,21.51
2023-01-20T10:55:36.464Z,21.49
2023-01-20T10:56:36.460Z,21.45
2023-01-20T10:57:36.456Z,21.51
2023-01-20T10:58:36.479Z,21.53
2023-01-20T10:59:36.467Z,21.51
2023-01-20T11:00:36.462Z,21.55
2023-01-20T11:02:36.627Z,21.51
2023-01-20T11:03:36.487Z,21.62
2023-01-20T11:04:36.460Z,21.55
2023-01-20T11:06:34.847Z,21.62
2023-01-20T11:08:35.496Z,21.67
2023-01-20T11:09:36.478Z,21.68
2023-01-20T11:10:34.838Z,21.76
2023-01-20T11:11:35.837Z,21.74
2023-01-20T11:12:34.855Z,21.68
2023-01-20T11:13:36.498Z,21.80
2023-01-20T11:14:36.497Z,21.76
2023-01-20T11:15:36.472Z,21.85
2023-01-20T11:16:36.517Z,21.77
2023-01-20T11:17:36.488Z,21.85
2023-01-20T11:18:34.824Z,21.89
2023-01-20T11:19:38.247Z,21.92
2023-01-20T11:20:36.485Z,21.96
2023-01-20T11:21:36.524Z,21.89
2023-01-20T11:22:36.493Z,21.90
2023-01-20T11:23:34.786Z,22.07
2023-01-20T11:24:36.480Z,22.00
2023-01-20T11:25:36.476Z,22.12
2023-01-20T11:26:36.491Z,22.11
2023-01-20T11:27:36.489Z,22.05
2023-01-20T11:28:36.510Z,22.09
2023-01-20T11:29:36.498Z,22.20
2023-01-20T11:30:34.798Z,22.18
2023-01-20T11:31:36.553Z,22.16
2023-01-20T11:33:36.544Z,22.15
2023-01-20T11:34:36.486Z,22.08
2023-01-20T11:35:36.501Z,22.09
2023-01-20T11:36:36.494Z,22.16
2023-01-20T11:37:36.512Z,22.14
2023-01-20T11:38:34.748Z,22.14
2023-01-20T11:39:36.486Z,22.18
2023-01-20T11:40:34.735Z,22.18
2023-01-20T11:41:36.503Z,22.12
2023-01-20T11:42:36.704Z,22.22
2023-01-20T11:43:36.522Z,22.29
2023-01-20T11:44:34.727Z,22.18
2023-01-20T11:45:34.779Z,22.23
2023-01-20T11:46:34.822Z,22.30
2023-01-20T11:47:34.717Z,22.22
2023-01-20T11:48:37.513Z,22.23
2023-01-20T11:49:34.724Z,22.22
2023-01-20T11:50:36.500Z,22.27
2023-01-20T11:51:34.762Z,22.26
2023-01-20T11:52:36.539Z,22.23
2023-01-20T11:53:34.704Z,22.31
2023-01-20T11:54:37.373Z,22.33
2023-01-20T11:55:34.686Z,22.33
2023-01-20T11:56:36.512Z,22.41
2023-01-20T11:57:34.677Z,22.39
2023-01-20T11:58:36.705Z,22.45
2023-01-20T11:59:36.534Z,22.42
2023-01-20T12:00:37.363Z,22.44
2023-01-20T12:01:36.547Z,22.42
2023-01-20T12:02:36.509Z,22.52
2023-01-20T12:03:36.509Z,22.45
2023-01-20T12:04:36.596Z,22.51
2023-01-20T12:05:36.646Z,22.48
2023-01-20T12:06:36.519Z,22.46
2023-01-20T12:07:36.518Z,22.51
2023-01-20T12:08:36.532Z,22.48
2023-01-20T12:09:36.545Z,22.48
2023-01-20T12:10:36.539Z,22.44
2023-01-20T12:11:34.652Z,22.51
2023-01-20T12:12:36.519Z,22.48
2023-01-20T12:14:36.555Z,22.45
2023-01-20T12:15:34.689Z,22.54
2023-01-20T12:16:35.063Z,22.48
2023-01-20T12:17:35.436Z,22.48
2023-01-20T12:18:34.795Z,22.48
2023-01-20T12:19:43.532Z,22.60
2023-01-20T12:20:45.607Z,22.49
2023-01-20T12:21:34.634Z,22.49
2023-01-20T12:22:34.631Z,22.48
2023-01-20T12:23:36.581Z,22.46
2023-01-20T12:24:42.918Z,22.48
2023-01-20T12:25:36.766Z,22.51
2023-01-20T12:26:36.538Z,22.41
2023-01-20T12:27:36.531Z,22.42
2023-01-20T12:28:36.531Z,22.46
2023-01-20T12:29:36.541Z,22.44
2023-01-20T12:30:36.655Z,22.45
2023-01-20T12:31:36.566Z,22.42
2023-01-20T12:32:36.700Z,22.45
2023-01-20T12:33:36.536Z,22.48
2023-01-20T12:34:36.534Z,22.45
2023-01-20T12:35:37.153Z,22.39
2023-01-20T12:36:36.561Z,22.41
2023-01-20T12:37:35.770Z,22.38
2023-01-20T12:38:35.941Z,22.39
2023-01-20T12:39:35.772Z,22.33
2023-01-20T12:40:35.558Z,22.30
2023-01-20T12:41:36.056Z,22.38
2023-01-20T12:42:37.049Z,22.42
2023-01-20T12:43:36.051Z,22.38
2023-01-20T12:44:36.061Z,22.38
2023-01-20T12:45:34.555Z,22.38
2023-01-20T12:46:35.527Z,22.38
2023-01-20T12:47:36.096Z,22.36
2023-01-20T12:48:36.050Z,22.36
2023-01-20T12:49:36.048Z,22.34
2023-01-20T12:50:36.056Z,22.34
2023-01-20T12:51:36.055Z,22.30
2023-01-20T12:52:36.183Z,22.26
2023-01-20T12:53:36.057Z,22.23
2023-01-20T12:54:47.798Z,22.23
2023-01-20T12:55:36.061Z,22.24
2023-01-20T12:56:36.068Z,22.29
2023-01-20T12:57:36.061Z,22.23
2023-01-20T12:58:36.062Z,22.23
2023-01-20T12:59:36.061Z,22.29
2023-01-20T13:00:36.072Z,22.26
2023-01-20T13:01:36.062Z,22.24
2023-01-20T13:02:36.084Z,22.23
2023-01-20T13:03:36.079Z,22.12
2023-01-20T13:04:36.066Z,22.14
2023-01-20T13:05:36.071Z,22.12
2023-01-20T13:06:36.093Z,22.08
2023-01-20T13:07:36.069Z,22.26
2023-01-20T13:08:36.114Z,22.20
2023-01-20T13:09:36.077Z,22.16
2023-01-20T13:10:36.071Z,22.15
2023-01-20T13:11:36.105Z,22.09
2023-01-20T13:12:34.457Z,22.08
2023-01-20T13:13:38.204Z,22.12
2023-01-20T13:14:34.448Z,22.11
2023-01-20T13:15:34.445Z,22.11
2023-01-20T13:16:36.106Z,22.11
2023-01-20T13:17:34.430Z,22.07
2023-01-20T13:18:36.084Z,22.11
2023-01-20T13:19:34.426Z,22.04
2023-01-20T13:20:36.079Z,21.99
2023-01-20T13:21:36.101Z,21.93
2023-01-20T13:22:34.423Z,21.96
2023-01-20T13:23:36.090Z,21.92
2023-01-20T13:24:36.111Z,21.94
2023-01-20T13:25:36.097Z,21.94
2023-01-20T13:26:34.403Z,21.92
2023-01-20T13:27:36.092Z,21.90
2023-01-20T13:28:34.397Z,21.93
2023-01-20T13:29:36.088Z,21.92
2023-01-20T13:30:36.221Z,21.93
2023-01-20T13:31:36.218Z,21.74
2023-01-20T13:32:36.088Z,21.89
2023-01-20T13:33:36.098Z,21.83
2023-01-20T13:34:36.117Z,21.83
2023-01-20T13:35:36.106Z,21.76
2023-01-20T13:36:36.095Z,21.77
2023-01-20T13:37:36.093Z,21.83
2023-01-20T13:38:36.097Z,21.82
2023-01-20T13:39:36.093Z,21.83
2023-01-20T13:40:36.125Z,21.78
2023-01-20T13:41:34.346Z,21.80
2023-01-20T13:42:34.345Z,21.83
2023-01-20T13:43:34.344Z,21.77
2023-01-20T13:44:34.330Z,21.74
2023-01-20T13:45:36.117Z,21.74
2023-01-20T13:46:36.119Z,21.76
2023-01-20T13:47:34.321Z,21.77
2023-01-20T13:48:34.328Z,21.77
2023-01-20T13:49:34.321Z,21.73
2023-01-20T13:50:36.135Z,21.71
2023-01-20T13:51:36.120Z,21.74
2023-01-20T13:52:36.138Z,21.67
2023-01-20T13:53:36.121Z,21.73
2023-01-20T13:54:36.113Z,21.71
2023-01-20T13:55:36.146Z,21.64
2023-01-20T13:56:36.120Z,21.66
2023-01-20T13:57:36.119Z,21.66
2023-01-20T13:58:36.127Z,21.61
2023-01-20T13:59:36.116Z,21.66
2023-01-20T14:00:36.119Z,21.67
2023-01-20T14:01:36.176Z,21.68
2023-01-20T14:02:36.173Z,21.66
2023-01-20T14:03:36.124Z,21.64
2023-01-20T14:04:36.129Z,21.68
2023-01-20T14:05:36.115Z,21.61
2023-01-20T14:06:36.406Z,21.58
2023-01-20T14:07:34.247Z,21.66
2023-01-20T14:08:34.251Z,21.61
2023-01-20T14:09:36.133Z,21.55
2023-01-20T14:10:34.247Z,21.59
2023-01-20T14:11:34.228Z,21.49
2023-01-20T14:12:36.166Z,21.62
2023-01-20T14:13:36.157Z,21.55
2023-01-20T14:14:34.226Z,21.55
2023-01-20T14:15:36.239Z,21.56
2023-01-20T14:16:34.275Z,21.61
2023-01-20T14:17:36.138Z,21.55
2023-01-20T14:18:36.141Z,21.59
2023-01-20T14:19:34.196Z,21.51
2023-01-20T14:20:34.204Z,21.56
2023-01-20T14:21:36.130Z,21.49
2023-01-20T14:22:36.135Z,21.51
2023-01-20T14:23:36.145Z,21.58
2023-01-20T14:24:36.142Z,21.48
2023-01-20T14:25:36.152Z,21.48
2023-01-20T14:26:36.147Z,21.46
2023-01-20T14:27:36.136Z,21.56
2023-01-20T14:28:36.195Z,21.56
2023-01-20T14:29:36.134Z,21.49
2023-01-20T14:30:36.223Z,21.55
2023-01-20T14:31:36.267Z,21.48
2023-01-20T14:32:35.162Z,21.56
2023-01-20T14:33:35.640Z,21.51
2023-01-20T14:34:35.658Z,21.48
2023-01-20T14:35:35.657Z,21.53
2023-01-20T14:36:35.644Z,21.56
2023-01-20T14:37:35.660Z,21.46
2023-01-20T14:38:45.151Z,21.51
2023-01-20T14:39:35.656Z,21.52
2023-01-20T14:40:35.650Z,21.56
2023-01-20T14:41:35.661Z,21.48
2023-01-20T14:42:35.648Z,21.49
2023-01-20T14:43:35.653Z,21.46
2023-01-20T14:44:34.106Z,21.59
2023-01-20T14:45:35.667Z,21.45
2023-01-20T14:46:35.196Z,21.48
2023-01-20T14:47:35.668Z,21.51
2023-01-20T14:48:35.258Z,21.48
2023-01-20T14:49:34.088Z,21.52
2023-01-20T14:50:35.730Z,21.43
2023-01-20T14:51:34.080Z,21.48
2023-01-20T14:52:37.178Z,21.46
2023-01-20T14:53:35.072Z,21.49
2023-01-20T14:54:35.071Z,21.45
2023-01-20T14:55:35.170Z,21.51
2023-01-20T14:56:35.054Z,21.48
2023-01-20T14:57:35.677Z,21.48
2023-01-20T14:58:35.075Z,21.53
2023-01-20T14:59:35.672Z,21.43
2023-01-20T15:00:35.680Z,21.41
2023-01-20T15:01:35.792Z,21.43
2023-01-20T15:02:35.702Z,21.41
2023-01-20T15:03:35.687Z,21.46
2023-01-20T15:04:35.668Z,21.46
2023-01-20T15:05:35.696Z,21.40
2023-01-20T15:06:35.670Z,21.36
2023-01-20T15:07:35.672Z,21.34
2023-01-20T15:08:35.191Z,21.38
2023-01-20T15:09:35.692Z,21.34
2023-01-20T15:10:35.001Z,21.31
2023-01-20T15:11:35.728Z,21.34
2023-01-20T15:12:34.995Z,21.37
2023-01-20T15:13:37.640Z,21.40
2023-01-20T15:14:35.701Z,21.34
2023-01-20T15:15:33.987Z,21.31
2023-01-20T15:16:33.994Z,21.31
2023-01-20T15:17:33.969Z,21.30
2023-01-20T15:18:33.971Z,21.34
2023-01-20T15:19:35.200Z,21.31
2023-01-20T15:20:33.959Z,21.37
2023-01-20T15:21:33.956Z,21.28
2023-01-20T15:22:33.951Z,21.31
2023-01-20T15:23:35.202Z,21.33
2023-01-20T15:24:35.688Z,21.27
2023-01-20T15:25:35.688Z,21.22
2023-01-20T15:26:34.937Z,21.30
2023-01-20T15:27:35.694Z,21.28
2023-01-20T15:28:35.733Z,21.22
2023-01-20T15:29:35.741Z,21.27
2023-01-20T15:30:34.945Z,21.30
2023-01-20T15:31:35.718Z,21.22
2023-01-20T15:32:35.730Z,21.19
2023-01-20T15:33:35.696Z,21.23
2023-01-20T15:34:35.698Z,21.15
2023-01-20T15:35:35.718Z,21.21
2023-01-20T15:36:35.704Z,21.19
2023-01-20T15:37:35.694Z,21.18
2023-01-20T15:38:35.699Z,21.25
2023-01-20T15:39:35.699Z,21.15
2023-01-20T15:40:35.713Z,21.21
2023-01-20T15:41:35.700Z,21.15
2023-01-20T15:42:35.697Z,21.21
2023-01-20T15:43:35.703Z,21.12
2023-01-20T15:44:35.704Z,21.13
2023-01-20T15:45:35.725Z,21.15
2023-01-20T15:46:34.878Z,21.15
2023-01-20T15:47:34.844Z,21.15
2023-01-20T15:48:34.857Z,21.09
2023-01-20T15:49:35.747Z,21.12
2023-01-20T15:50:33.837Z,21.11
2023-01-20T15:51:33.836Z,21.04
2023-01-20T15:52:33.822Z,21.04
2023-01-20T15:53:33.817Z,21.11
2023-01-20T15:54:33.817Z,21.08
2023-01-20T15:55:35.722Z,21.04
2023-01-20T15:56:35.707Z,21.13
2023-01-20T15:57:35.736Z,21.01
2023-01-20T15:58:35.712Z,21.01
2023-01-20T15:59:35.730Z,21.06
2023-01-20T16:00:35.713Z,21.04
2023-01-20T16:12:47.483Z,20.86
2023-01-20T16:13:47.986Z,20.82
2023-01-20T16:14:47.220Z,20.97
2023-01-20T16:15:47.944Z,20.93
2023-01-20T16:16:47.991Z,20.94
2023-01-20T16:17:47.974Z,20.82
2023-01-20T16:18:47.454Z,20.88
2023-01-20T16:19:46.189Z,20.82
2023-01-20T16:20:46.185Z,20.88
2023-01-20T16:21:46.170Z,20.85
2023-01-20T16:22:47.165Z,20.81
2023-01-20T16:23:47.475Z,20.82
2023-01-20T16:24:46.175Z,20.81
2023-01-20T16:25:46.170Z,20.86
2023-01-20T16:26:46.152Z,20.78
2023-01-20T16:27:47.467Z,20.81
2023-01-20T16:28:47.496Z,20.79
2023-01-20T16:29:47.478Z,20.86
2023-01-20T16:30:46.154Z,20.82
2023-01-20T16:31:46.203Z,20.82
2023-01-20T16:32:46.149Z,20.85
2023-01-20T16:33:48.069Z,20.81
2023-01-20T16:34:47.952Z,20.78
2023-01-20T16:35:47.956Z,20.85
2023-01-20T16:36:47.991Z,20.90
2023-01-20T16:37:47.962Z,20.79
2023-01-20T16:38:47.977Z,20.75
2023-01-20T16:39:47.967Z,20.83
2023-01-20T16:40:47.965Z,20.79
2023-01-20T16:41:47.962Z,20.79
2023-01-20T16:42:47.971Z,20.85
2023-01-20T16:43:48.008Z,20.86
2023-01-20T16:44:47.975Z,20.88
2023-01-20T16:45:48.002Z,20.85
2023-01-20T16:46:46.064Z,20.86
2023-01-20T16:47:47.980Z,20.78
2023-01-20T16:48:47.479Z,20.78
2023-01-20T16:49:47.987Z,20.83
2023-01-20T16:50:47.997Z,20.78
2023-01-20T16:51:47.979Z,20.76
2023-01-20T16:52:47.991Z,20.86
2023-01-20T16:53:47.968Z,20.78
2023-01-20T16:54:47.993Z,20.82
2023-01-20T16:55:47.983Z,20.83
2023-01-20T16:56:47.984Z,20.85
2023-01-20T16:57:47.987Z,20.85
2023-01-20T16:58:48.003Z,20.85
2023-01-20T16:59:48.001Z,20.83
2023-01-20T17:00:48.040Z,20.86
2023-01-20T17:01:46.020Z,20.76
2023-01-20T17:02:46.986Z,20.85
2023-01-20T17:03:45.990Z,20.83
2023-01-20T17:04:47.491Z,20.82
2023-01-20T17:05:47.478Z,20.85
2023-01-20T17:06:47.490Z,20.82
2023-01-20T17:07:47.516Z,20.79
2023-01-20T17:08:47.488Z,20.88
2023-01-20T17:09:47.498Z,20.79
2023-01-20T17:10:47.490Z,20.86
2023-01-20T17:11:47.484Z,20.82
2023-01-20T17:12:48.977Z,20.85
2023-01-20T17:13:47.505Z,20.81
2023-01-20T17:14:47.516Z,20.83
2023-01-20T17:15:47.504Z,20.79
2023-01-20T17:16:47.623Z,20.79
2023-01-20T17:17:47.491Z,20.79
2023-01-20T17:18:47.518Z,20.82
2023-01-20T17:19:47.488Z,20.82
2023-01-20T17:20:47.508Z,20.79
2023-01-20T17:21:47.496Z,20.86
2023-01-20T17:22:47.497Z,20.86
2023-01-20T17:23:47.493Z,20.76
2023-01-20T17:24:46.883Z,20.81
2023-01-20T17:25:47.005Z,20.86
2023-01-20T17:26:45.876Z,20.82
2023-01-20T17:27:45.873Z,20.79
2023-01-20T17:28:45.879Z,20.79
2023-01-20T17:29:45.869Z,20.81
2023-01-20T17:30:47.529Z,20.82
2023-01-20T17:31:45.893Z,20.83
2023-01-20T17:32:45.875Z,20.86
2023-01-20T17:33:45.840Z,20.79
2023-01-20T17:34:45.836Z,20.82
2023-01-20T17:35:47.517Z,20.85
2023-01-20T17:36:45.832Z,20.82
2023-01-20T17:37:47.507Z,20.83